sensor_id;sensor_type;location;lat;lon;timestamp;P1;durP1;ratioP1;P2;durP2;ratioP2
69327;SDS011;56472;52.114;5.492;2023-04-03T00:01:19;2.47;;;1.60;;
69327;SDS011;56472;52.114;5.492;2023-04-03T00:03:46;1.85;;;1.50;;
69327;SDS011;56472;52.114;5.492;2023-04-03T00:06:13;2.03;;;1.63;;
69327;SDS011;56472;52.114;5.492;2023-04-03T00:08:41;3.80;;;1.67;;
69327;SDS011;56472;52.114;5.492;2023-04-03T00:11:08;2.38;;;1.75;;
69327;SDS011;56472;52.114;5.492;2023-04-03T00:13:36;2.20;;;1.60;;
69327;SDS011;56472;52.114;5.492;2023-04-03T00:16:03;3.33;;;1.50;;
69327;SDS011;56472;52.114;5.492;2023-04-03T00:18:30;2.53;;;1.48;;
69327;SDS011;56472;52.114;5.492;2023-04-03T00:20:57;1.83;;;1.50;;
69327;SDS011;56472;52.114;5.492;2023-04-03T00:23:24;1.83;;;1.73;;
69327;SDS011;56472;52.114;5.492;2023-04-03T00:25:51;2.28;;;1.40;;
69327;SDS011;56472;52.114;5.492;2023-04-03T00:28:19;3.13;;;1.55;;
69327;SDS011;56472;52.114;5.492;2023-04-03T00:30:48;2.00;;;1.52;;
69327;SDS011;56472;52.114;5.492;2023-04-03T00:33:15;1.60;;;1.50;;
69327;SDS011;56472;52.114;5.492;2023-04-03T00:35:43;4.57;;;1.40;;
69327;SDS011;56472;52.114;5.492;2023-04-03T00:38:10;2.10;;;1.50;;
69327;SDS011;56472;52.114;5.492;2023-04-03T00:40:38;1.58;;;1.48;;
69327;SDS011;56472;52.114;5.492;2023-04-03T00:43:19;2.70;;;1.73;;
69327;SDS011;56472;52.114;5.492;2023-04-03T00:45:49;2.72;;;1.55;;
69327;SDS011;56472;52.114;5.492;2023-04-03T00:48:21;1.40;;;1.30;;
69327;SDS011;56472;52.114;5.492;2023-04-03T00:53:18;1.70;;;1.25;;
69327;SDS011;56472;52.114;5.492;2023-04-03T00:55:49;2.42;;;1.30;;
69327;SDS011;56472;52.114;5.492;2023-04-03T00:58:19;1.73;;;1.60;;
69327;SDS011;56472;52.114;5.492;2023-04-03T01:00:50;3.70;;;1.65;;
69327;SDS011;56472;52.114;5.492;2023-04-03T01:03:23;5.40;;;1.80;;
69327;SDS011;56472;52.114;5.492;2023-04-03T01:05:52;2.58;;;1.58;;
69327;SDS011;56472;52.114;5.492;2023-04-03T01:08:20;2.53;;;1.58;;
69327;SDS011;56472;52.114;5.492;2023-04-03T01:10:48;3.47;;;2.10;;
69327;SDS011;56472;52.114;5.492;2023-04-03T01:13:24;3.50;;;1.60;;
69327;SDS011;56472;52.114;5.492;2023-04-03T01:15:56;2.47;;;1.70;;
69327;SDS011;56472;52.114;5.492;2023-04-03T01:18:26;4.95;;;1.70;;
69327;SDS011;56472;52.114;5.492;2023-04-03T01:23:53;3.70;;;1.50;;
69327;SDS011;56472;52.114;5.492;2023-04-03T01:26:29;3.80;;;1.80;;
69327;SDS011;56472;52.114;5.492;2023-04-03T01:28:58;2.38;;;1.65;;
69327;SDS011;56472;52.114;5.492;2023-04-03T01:34:15;4.65;;;1.85;;
69327;SDS011;56472;52.114;5.492;2023-04-03T01:36:42;9.13;;;1.80;;
69327;SDS011;56472;52.114;5.492;2023-04-03T01:39:09;2.90;;;1.85;;
69327;SDS011;56472;52.114;5.492;2023-04-03T01:41:36;2.22;;;2.03;;
69327;SDS011;56472;52.114;5.492;2023-04-03T01:44:11;3.42;;;2.00;;
69327;SDS011;56472;52.114;5.492;2023-04-03T01:46:38;6.25;;;2.10;;
69327;SDS011;56472;52.114;5.492;2023-04-03T01:49:05;4.28;;;1.67;;
69327;SDS011;56472;52.114;5.492;2023-04-03T01:51:32;3.90;;;1.63;;
69327;SDS011;56472;52.114;5.492;2023-04-03T01:53:59;7.60;;;1.90;;
69327;SDS011;56472;52.114;5.492;2023-04-03T01:56:26;3.22;;;2.00;;
69327;SDS011;56472;52.114;5.492;2023-04-03T01:58:54;5.32;;;1.75;;
69327;SDS011;56472;52.114;5.492;2023-04-03T02:01:21;4.85;;;1.63;;
69327;SDS011;56472;52.114;5.492;2023-04-03T02:03:48;3.75;;;2.28;;
69327;SDS011;56472;52.114;5.492;2023-04-03T02:06:15;3.92;;;1.90;;
69327;SDS011;56472;52.114;5.492;2023-04-03T02:08:42;4.28;;;2.53;;
69327;SDS011;56472;52.114;5.492;2023-04-03T02:11:09;2.65;;;1.70;;
69327;SDS011;56472;52.114;5.492;2023-04-03T02:13:36;2.20;;;1.40;;
69327;SDS011;56472;52.114;5.492;2023-04-03T02:16:09;2.55;;;2.03;;
69327;SDS011;56472;52.114;5.492;2023-04-03T02:18:37;2.58;;;1.70;;
69327;SDS011;56472;52.114;5.492;2023-04-03T02:21:05;2.33;;;1.95;;
69327;SDS011;56472;52.114;5.492;2023-04-03T02:23:32;4.07;;;2.30;;
69327;SDS011;56472;52.114;5.492;2023-04-03T02:26:03;3.38;;;1.80;;
69327;SDS011;56472;52.114;5.492;2023-04-03T02:28:32;5.25;;;2.08;;
69327;SDS011;56472;52.114;5.492;2023-04-03T02:30:59;2.22;;;1.80;;
69327;SDS011;56472;52.114;5.492;2023-04-03T02:33:27;6.20;;;1.90;;
69327;SDS011;56472;52.114;5.492;2023-04-03T02:35:55;3.83;;;1.90;;
69327;SDS011;56472;52.114;5.492;2023-04-03T02:38:22;5.30;;;2.72;;
69327;SDS011;56472;52.114;5.492;2023-04-03T02:40:51;6.40;;;1.90;;
69327;SDS011;56472;52.114;5.492;2023-04-03T02:43:18;4.53;;;2.00;;
69327;SDS011;56472;52.114;5.492;2023-04-03T02:45:45;5.53;;;1.80;;
69327;SDS011;56472;52.114;5.492;2023-04-03T02:48:12;6.25;;;2.10;;
69327;SDS011;56472;52.114;5.492;2023-04-03T02:50:38;6.53;;;2.28;;
69327;SDS011;56472;52.114;5.492;2023-04-03T02:53:05;2.97;;;1.95;;
69327;SDS011;56472;52.114;5.492;2023-04-03T02:55:32;3.83;;;2.00;;
69327;SDS011;56472;52.114;5.492;2023-04-03T02:57:59;3.30;;;2.50;;
69327;SDS011;56472;52.114;5.492;2023-04-03T03:00:26;5.68;;;2.20;;
69327;SDS011;56472;52.114;5.492;2023-04-03T03:02:53;9.70;;;2.58;;
69327;SDS011;56472;52.114;5.492;2023-04-03T03:05:20;3.60;;;2.33;;
69327;SDS011;56472;52.114;5.492;2023-04-03T03:07:48;5.13;;;2.20;;
69327;SDS011;56472;52.114;5.492;2023-04-03T03:10:14;6.47;;;2.35;;
69327;SDS011;56472;52.114;5.492;2023-04-03T03:12:41;6.88;;;2.20;;
69327;SDS011;56472;52.114;5.492;2023-04-03T03:15:08;5.65;;;1.80;;
69327;SDS011;56472;52.114;5.492;2023-04-03T03:17:36;6.70;;;1.80;;
69327;SDS011;56472;52.114;5.492;2023-04-03T03:20:03;2.33;;;1.90;;
69327;SDS011;56472;52.114;5.492;2023-04-03T03:22:32;4.80;;;2.65;;
69327;SDS011;56472;52.114;5.492;2023-04-03T03:25:00;3.38;;;2.00;;
69327;SDS011;56472;52.114;5.492;2023-04-03T03:27:27;5.93;;;2.20;;
69327;SDS011;56472;52.114;5.492;2023-04-03T03:29:54;2.63;;;2.08;;
69327;SDS011;56472;52.114;5.492;2023-04-03T03:32:21;6.45;;;2.00;;
69327;SDS011;56472;52.114;5.492;2023-04-03T03:34:48;5.35;;;2.08;;
69327;SDS011;56472;52.114;5.492;2023-04-03T03:37:15;5.47;;;2.47;;
69327;SDS011;56472;52.114;5.492;2023-04-03T03:39:42;3.42;;;2.15;;
69327;SDS011;56472;52.114;5.492;2023-04-03T03:42:09;5.13;;;1.80;;
69327;SDS011;56472;52.114;5.492;2023-04-03T03:44:36;2.88;;;2.10;;
69327;SDS011;56472;52.114;5.492;2023-04-03T03:47:02;2.08;;;1.80;;
69327;SDS011;56472;52.114;5.492;2023-04-03T03:49:30;3.72;;;1.88;;
69327;SDS011;56472;52.114;5.492;2023-04-03T03:51:57;2.72;;;1.75;;
69327;SDS011;56472;52.114;5.492;2023-04-03T03:54:24;2.53;;;2.10;;
69327;SDS011;56472;52.114;5.492;2023-04-03T03:56:51;3.67;;;2.28;;
69327;SDS011;56472;52.114;5.492;2023-04-03T03:59:18;2.50;;;2.25;;
69327;SDS011;56472;52.114;5.492;2023-04-03T04:01:45;3.88;;;2.28;;
69327;SDS011;56472;52.114;5.492;2023-04-03T04:04:12;4.50;;;2.10;;
69327;SDS011;56472;52.114;5.492;2023-04-03T04:06:39;3.10;;;1.75;;
69327;SDS011;56472;52.114;5.492;2023-04-03T04:09:08;3.90;;;1.83;;
69327;SDS011;56472;52.114;5.492;2023-04-03T04:11:35;5.95;;;2.30;;
69327;SDS011;56472;52.114;5.492;2023-04-03T04:14:02;4.53;;;2.50;;
69327;SDS011;56472;52.114;5.492;2023-04-03T04:16:30;5.68;;;2.25;;
69327;SDS011;56472;52.114;5.492;2023-04-03T04:19:01;5.10;;;2.15;;
69327;SDS011;56472;52.114;5.492;2023-04-03T04:21:30;5.18;;;2.20;;
69327;SDS011;56472;52.114;5.492;2023-04-03T04:23:57;2.22;;;2.00;;
69327;SDS011;56472;52.114;5.492;2023-04-03T04:26:25;4.88;;;2.40;;
69327;SDS011;56472;52.114;5.492;2023-04-03T04:28:52;5.30;;;2.22;;
69327;SDS011;56472;52.114;5.492;2023-04-03T04:31:19;4.97;;;2.17;;
69327;SDS011;56472;52.114;5.492;2023-04-03T04:33:47;10.18;;;3.00;;
69327;SDS011;56472;52.114;5.492;2023-04-03T04:36:14;8.25;;;2.60;;
69327;SDS011;56472;52.114;5.492;2023-04-03T04:38:44;7.57;;;2.55;;
69327;SDS011;56472;52.114;5.492;2023-04-03T04:41:11;2.45;;;2.03;;
69327;SDS011;56472;52.114;5.492;2023-04-03T04:43:39;3.92;;;2.38;;
69327;SDS011;56472;52.114;5.492;2023-04-03T04:46:07;5.57;;;2.70;;
69327;SDS011;56472;52.114;5.492;2023-04-03T04:48:41;7.05;;;2.92;;
69327;SDS011;56472;52.114;5.492;2023-04-03T04:51:09;3.80;;;2.40;;
69327;SDS011;56472;52.114;5.492;2023-04-03T04:53:37;9.02;;;2.78;;
69327;SDS011;56472;52.114;5.492;2023-04-03T04:56:05;8.70;;;3.00;;
69327;SDS011;56472;52.114;5.492;2023-04-03T04:58:34;3.95;;;2.42;;
69327;SDS011;56472;52.114;5.492;2023-04-03T05:01:03;5.93;;;2.80;;
69327;SDS011;56472;52.114;5.492;2023-04-03T05:03:38;6.13;;;2.80;;
69327;SDS011;56472;52.114;5.492;2023-04-03T05:06:06;5.97;;;2.45;;
69327;SDS011;56472;52.114;5.492;2023-04-03T05:08:34;2.15;;;1.95;;
69327;SDS011;56472;52.114;5.492;2023-04-03T05:11:02;4.97;;;2.38;;
69327;SDS011;56472;52.114;5.492;2023-04-03T05:13:30;3.63;;;2.92;;
69327;SDS011;56472;52.114;5.492;2023-04-03T05:15:57;4.30;;;2.20;;
69327;SDS011;56472;52.114;5.492;2023-04-03T05:18:24;5.40;;;2.42;;
69327;SDS011;56472;52.114;5.492;2023-04-03T05:20:52;3.97;;;2.42;;
69327;SDS011;56472;52.114;5.492;2023-04-03T05:23:21;11.18;;;2.60;;
69327;SDS011;56472;52.114;5.492;2023-04-03T05:25:48;8.88;;;2.80;;
69327;SDS011;56472;52.114;5.492;2023-04-03T05:28:16;9.38;;;2.58;;
69327;SDS011;56472;52.114;5.492;2023-04-03T05:30:43;6.80;;;2.58;;
69327;SDS011;56472;52.114;5.492;2023-04-03T05:33:11;3.88;;;2.53;;
69327;SDS011;56472;52.114;5.492;2023-04-03T05:35:48;8.27;;;3.10;;
69327;SDS011;56472;52.114;5.492;2023-04-03T05:38:22;3.95;;;2.50;;
69327;SDS011;56472;52.114;5.492;2023-04-03T05:40:50;5.20;;;2.22;;
69327;SDS011;56472;52.114;5.492;2023-04-03T05:43:17;8.50;;;2.78;;
69327;SDS011;56472;52.114;5.492;2023-04-03T05:45:44;4.97;;;2.35;;
69327;SDS011;56472;52.114;5.492;2023-04-03T05:48:14;7.88;;;2.40;;
69327;SDS011;56472;52.114;5.492;2023-04-03T05:50:41;5.40;;;2.67;;
69327;SDS011;56472;52.114;5.492;2023-04-03T05:53:15;6.57;;;3.13;;
69327;SDS011;56472;52.114;5.492;2023-04-03T05:55:50;6.07;;;2.42;;
69327;SDS011;56472;52.114;5.492;2023-04-03T05:58:17;4.18;;;2.33;;
69327;SDS011;56472;52.114;5.492;2023-04-03T06:00:46;5.10;;;2.17;;
69327;SDS011;56472;52.114;5.492;2023-04-03T06:03:14;7.85;;;2.05;;
69327;SDS011;56472;52.114;5.492;2023-04-03T06:05:42;5.10;;;2.53;;
69327;SDS011;56472;52.114;5.492;2023-04-03T06:08:10;6.07;;;2.33;;
69327;SDS011;56472;52.114;5.492;2023-04-03T06:10:37;12.30;;;2.50;;
69327;SDS011;56472;52.114;5.492;2023-04-03T06:13:05;8.48;;;2.63;;
69327;SDS011;56472;52.114;5.492;2023-04-03T06:15:32;3.25;;;2.30;;
69327;SDS011;56472;52.114;5.492;2023-04-03T06:17:59;4.22;;;2.13;;
69327;SDS011;56472;52.114;5.492;2023-04-03T06:20:27;6.07;;;2.78;;
69327;SDS011;56472;52.114;5.492;2023-04-03T06:22:54;6.03;;;2.10;;
69327;SDS011;56472;52.114;5.492;2023-04-03T06:25:21;5.07;;;2.40;;
69327;SDS011;56472;52.114;5.492;2023-04-03T06:27:48;5.60;;;2.42;;
69327;SDS011;56472;52.114;5.492;2023-04-03T06:30:15;7.00;;;2.80;;
69327;SDS011;56472;52.114;5.492;2023-04-03T06:32:42;9.70;;;2.85;;
69327;SDS011;56472;52.114;5.492;2023-04-03T06:35:09;10.18;;;2.50;;
69327;SDS011;56472;52.114;5.492;2023-04-03T06:37:36;4.35;;;2.40;;
69327;SDS011;56472;52.114;5.492;2023-04-03T06:40:03;5.32;;;2.13;;
69327;SDS011;56472;52.114;5.492;2023-04-03T06:42:30;5.15;;;2.00;;
69327;SDS011;56472;52.114;5.492;2023-04-03T06:45:05;3.80;;;2.45;;
69327;SDS011;56472;52.114;5.492;2023-04-03T06:47:34;3.70;;;2.33;;
69327;SDS011;56472;52.114;5.492;2023-04-03T06:50:00;2.88;;;2.10;;
69327;SDS011;56472;52.114;5.492;2023-04-03T06:52:27;9.75;;;2.30;;
69327;SDS011;56472;52.114;5.492;2023-04-03T06:54:54;4.53;;;2.08;;
69327;SDS011;56472;52.114;5.492;2023-04-03T06:57:23;7.47;;;2.72;;
69327;SDS011;56472;52.114;5.492;2023-04-03T06:59:51;5.03;;;2.28;;
69327;SDS011;56472;52.114;5.492;2023-04-03T07:02:18;8.77;;;2.70;;
69327;SDS011;56472;52.114;5.492;2023-04-03T07:04:45;6.35;;;2.35;;
69327;SDS011;56472;52.114;5.492;2023-04-03T07:07:12;4.85;;;2.05;;
69327;SDS011;56472;52.114;5.492;2023-04-03T07:09:39;4.95;;;2.20;;
69327;SDS011;56472;52.114;5.492;2023-04-03T07:12:09;4.80;;;2.13;;
69327;SDS011;56472;52.114;5.492;2023-04-03T07:14:36;3.97;;;2.35;;
69327;SDS011;56472;52.114;5.492;2023-04-03T07:17:02;11.95;;;2.22;;
69327;SDS011;56472;52.114;5.492;2023-04-03T07:19:29;8.43;;;2.80;;
69327;SDS011;56472;52.114;5.492;2023-04-03T07:21:57;4.13;;;2.20;;
69327;SDS011;56472;52.114;5.492;2023-04-03T07:24:24;2.30;;;1.70;;
69327;SDS011;56472;52.114;5.492;2023-04-03T07:26:54;9.35;;;2.20;;
69327;SDS011;56472;52.114;5.492;2023-04-03T07:29:21;6.05;;;2.85;;
69327;SDS011;56472;52.114;5.492;2023-04-03T07:31:48;8.13;;;2.67;;
69327;SDS011;56472;52.114;5.492;2023-04-03T07:34:15;4.60;;;2.03;;
69327;SDS011;56472;52.114;5.492;2023-04-03T07:36:42;5.43;;;2.20;;
69327;SDS011;56472;52.114;5.492;2023-04-03T07:39:09;5.57;;;2.05;;
69327;SDS011;56472;52.114;5.492;2023-04-03T07:41:37;4.43;;;1.88;;
69327;SDS011;56472;52.114;5.492;2023-04-03T07:44:04;6.13;;;2.10;;
69327;SDS011;56472;52.114;5.492;2023-04-03T07:46:31;5.95;;;2.13;;
69327;SDS011;56472;52.114;5.492;2023-04-03T07:48:58;5.72;;;1.80;;
69327;SDS011;56472;52.114;5.492;2023-04-03T07:51:25;2.67;;;1.70;;
69327;SDS011;56472;52.114;5.492;2023-04-03T07:53:52;9.27;;;2.35;;
69327;SDS011;56472;52.114;5.492;2023-04-03T07:56:20;6.47;;;2.00;;
69327;SDS011;56472;52.114;5.492;2023-04-03T07:58:47;12.18;;;2.13;;
69327;SDS011;56472;52.114;5.492;2023-04-03T08:01:14;2.63;;;1.75;;
69327;SDS011;56472;52.114;5.492;2023-04-03T08:03:40;3.28;;;2.03;;
69327;SDS011;56472;52.114;5.492;2023-04-03T08:06:08;5.30;;;1.60;;
69327;SDS011;56472;52.114;5.492;2023-04-03T08:08:41;4.65;;;1.98;;
69327;SDS011;56472;52.114;5.492;2023-04-03T08:11:09;5.55;;;1.70;;
69327;SDS011;56472;52.114;5.492;2023-04-03T08:13:37;8.27;;;1.73;;
69327;SDS011;56472;52.114;5.492;2023-04-03T08:16:17;4.80;;;1.77;;
69327;SDS011;56472;52.114;5.492;2023-04-03T08:18:46;2.95;;;1.30;;
69327;SDS011;56472;52.114;5.492;2023-04-03T08:21:14;5.72;;;1.50;;
69327;SDS011;56472;52.114;5.492;2023-04-03T08:23:41;4.50;;;1.60;;
69327;SDS011;56472;52.114;5.492;2023-04-03T08:26:12;3.17;;;1.50;;
69327;SDS011;56472;52.114;5.492;2023-04-03T08:28:41;2.42;;;1.40;;
69327;SDS011;56472;52.114;5.492;2023-04-03T08:31:10;3.03;;;1.10;;
69327;SDS011;56472;52.114;5.492;2023-04-03T08:33:39;3.97;;;1.48;;
69327;SDS011;56472;52.114;5.492;2023-04-03T08:36:06;3.40;;;1.38;;
69327;SDS011;56472;52.114;5.492;2023-04-03T08:38:42;3.38;;;1.27;;
69327;SDS011;56472;52.114;5.492;2023-04-03T08:49:15;8.07;;;1.27;;
69327;SDS011;56472;52.114;5.492;2023-04-03T08:51:51;3.10;;;1.08;;
69327;SDS011;56472;52.114;5.492;2023-04-03T08:54:24;1.80;;;1.48;;
69327;SDS011;56472;52.114;5.492;2023-04-03T08:56:59;1.60;;;1.02;;
69327;SDS011;56472;52.114;5.492;2023-04-03T08:59:30;2.03;;;0.88;;
69327;SDS011;56472;52.114;5.492;2023-04-03T09:02:01;2.10;;;0.90;;
69327;SDS011;56472;52.114;5.492;2023-04-03T09:04:38;2.13;;;0.80;;
69327;SDS011;56472;52.114;5.492;2023-04-03T09:07:15;0.60;;;0.52;;
69327;SDS011;56472;52.114;5.492;2023-04-03T09:09:52;0.70;;;0.65;;
69327;SDS011;56472;52.114;5.492;2023-04-03T09:12:24;2.63;;;1.25;;
69327;SDS011;56472;52.114;5.492;2023-04-03T09:15:09;1.40;;;0.80;;
69327;SDS011;56472;52.114;5.492;2023-04-03T09:20:49;1.67;;;0.75;;
69327;SDS011;56472;52.114;5.492;2023-04-03T09:23:44;3.08;;;1.75;;
69327;SDS011;56472;52.114;5.492;2023-04-03T09:26:21;0.60;;;0.60;;
69327;SDS011;56472;52.114;5.492;2023-04-03T09:28:53;2.25;;;0.73;;
69327;SDS011;56472;52.114;5.492;2023-04-03T09:31:24;1.27;;;0.80;;
69327;SDS011;56472;52.114;5.492;2023-04-03T09:33:55;3.35;;;0.70;;
69327;SDS011;56472;52.114;5.492;2023-04-03T09:39:14;2.38;;;0.60;;
69327;SDS011;56472;52.114;5.492;2023-04-03T09:41:56;0.50;;;0.50;;
69327;SDS011;56472;52.114;5.492;2023-04-03T09:44:27;3.92;;;0.60;;
69327;SDS011;56472;52.114;5.492;2023-04-03T09:46:59;2.35;;;0.60;;
69327;SDS011;56472;52.114;5.492;2023-04-03T09:49:43;0.65;;;0.40;;
69327;SDS011;56472;52.114;5.492;2023-04-03T09:52:18;0.40;;;0.40;;
69327;SDS011;56472;52.114;5.492;2023-04-03T09:54:53;0.32;;;0.32;;
69327;SDS011;56472;52.114;5.492;2023-04-03T09:57:19;1.85;;;0.40;;
69327;SDS011;56472;52.114;5.492;2023-04-03T09:59:56;0.65;;;0.50;;
69327;SDS011;56472;52.114;5.492;2023-04-03T10:02:33;0.50;;;0.35;;
69327;SDS011;56472;52.114;5.492;2023-04-03T10:10:43;1.65;;;0.63;;
69327;SDS011;56472;52.114;5.492;2023-04-03T10:13:14;1.63;;;0.60;;
69327;SDS011;56472;52.114;5.492;2023-04-03T10:15:57;0.35;;;0.35;;
69327;SDS011;56472;52.114;5.492;2023-04-03T10:20:57;0.45;;;0.45;;
69327;SDS011;56472;52.114;5.492;2023-04-03T10:23:42;0.70;;;0.40;;
69327;SDS011;56472;52.114;5.492;2023-04-03T10:31:43;1.17;;;0.60;;
69327;SDS011;56472;52.114;5.492;2023-04-03T10:47:40;0.47;;;0.43;;
69327;SDS011;56472;52.114;5.492;2023-04-03T10:53:16;0.73;;;0.50;;
69327;SDS011;56472;52.114;5.492;2023-04-03T10:58:42;1.48;;;0.70;;
69327;SDS011;56472;52.114;5.492;2023-04-03T11:01:13;3.72;;;1.00;;
69327;SDS011;56472;52.114;5.492;2023-04-03T11:03:44;0.80;;;0.60;;
69327;SDS011;56472;52.114;5.492;2023-04-03T11:06:19;0.75;;;0.60;;
69327;SDS011;56472;52.114;5.492;2023-04-03T11:11:33;1.83;;;0.50;;
69327;SDS011;56472;52.114;5.492;2023-04-03T11:14:49;0.90;;;0.50;;
69327;SDS011;56472;52.114;5.492;2023-04-03T11:16:55;0.90;;;0.60;;
69327;SDS011;56472;52.114;5.492;2023-04-03T11:24:44;5.97;;;0.90;;
69327;SDS011;56472;52.114;5.492;2023-04-03T11:27:19;0.88;;;0.75;;
69327;SDS011;56472;52.114;5.492;2023-04-03T11:29:49;4.97;;;0.90;;
69327;SDS011;56472;52.114;5.492;2023-04-03T11:35:07;2.22;;;0.75;;
69327;SDS011;56472;52.114;5.492;2023-04-03T11:37:39;0.75;;;0.57;;
69327;SDS011;56472;52.114;5.492;2023-04-03T11:42:49;1.55;;;0.90;;
69327;SDS011;56472;52.114;5.492;2023-04-03T11:48:03;1.08;;;0.50;;
69327;SDS011;56472;52.114;5.492;2023-04-03T11:50:49;7.80;;;0.68;;
69327;SDS011;56472;52.114;5.492;2023-04-03T12:08:47;4.85;;;0.63;;
69327;SDS011;56472;52.114;5.492;2023-04-03T12:11:30;2.00;;;0.77;;
69327;SDS011;56472;52.114;5.492;2023-04-03T12:29:21;1.75;;;0.80;;
69327;SDS011;56472;52.114;5.492;2023-04-03T12:37:51;1.55;;;0.80;;
69327;SDS011;56472;52.114;5.492;2023-04-03T12:46:15;1.48;;;0.93;;
69327;SDS011;56472;52.114;5.492;2023-04-03T12:51:39;1.42;;;0.80;;
69327;SDS011;56472;52.114;5.492;2023-04-03T12:54:26;3.25;;;0.90;;
69327;SDS011;56472;52.114;5.492;2023-04-03T12:59:54;1.27;;;1.10;;
69327;SDS011;56472;52.114;5.492;2023-04-03T13:02:22;2.60;;;0.90;;
69327;SDS011;56472;52.114;5.492;2023-04-03T13:04:57;4.20;;;0.93;;
69327;SDS011;56472;52.114;5.492;2023-04-03T13:09:55;5.35;;;0.90;;
69327;SDS011;56472;52.114;5.492;2023-04-03T13:12:27;1.17;;;1.08;;
69327;SDS011;56472;52.114;5.492;2023-04-03T13:14:58;2.15;;;1.35;;
69327;SDS011;56472;52.114;5.492;2023-04-03T13:17:27;5.78;;;1.20;;
69327;SDS011;56472;52.114;5.492;2023-04-03T13:19:54;1.85;;;0.90;;
69327;SDS011;56472;52.114;5.492;2023-04-03T13:24:58;1.25;;;0.90;;
69327;SDS011;56472;52.114;5.492;2023-04-03T13:27:30;2.53;;;1.20;;
69327;SDS011;56472;52.114;5.492;2023-04-03T13:29:59;2.17;;;1.00;;
69327;SDS011;56472;52.114;5.492;2023-04-03T13:32:28;1.33;;;1.02;;
69327;SDS011;56472;52.114;5.492;2023-04-03T13:35:00;4.93;;;1.38;;
69327;SDS011;56472;52.114;5.492;2023-04-03T13:37:53;1.67;;;1.17;;
69327;SDS011;56472;52.114;5.492;2023-04-03T13:40:22;5.03;;;1.30;;
69327;SDS011;56472;52.114;5.492;2023-04-03T13:43:00;4.87;;;1.37;;
69327;SDS011;56472;52.114;5.492;2023-04-03T13:45:33;1.27;;;1.10;;
69327;SDS011;56472;52.114;5.492;2023-04-03T13:53:30;2.35;;;1.30;;
69327;SDS011;56472;52.114;5.492;2023-04-03T13:56:09;2.50;;;1.40;;
69327;SDS011;56472;52.114;5.492;2023-04-03T14:01:54;3.10;;;1.23;;
69327;SDS011;56472;52.114;5.492;2023-04-03T14:04:29;2.35;;;1.10;;
69327;SDS011;56472;52.114;5.492;2023-04-03T14:06:57;4.32;;;1.40;;
69327;SDS011;56472;52.114;5.492;2023-04-03T14:09:25;4.80;;;1.27;;
69327;SDS011;56472;52.114;5.492;2023-04-03T14:11:54;2.47;;;1.13;;
69327;SDS011;56472;52.114;5.492;2023-04-03T14:14:31;5.18;;;1.40;;
69327;SDS011;56472;52.114;5.492;2023-04-03T14:17:01;2.03;;;1.30;;
69327;SDS011;56472;52.114;5.492;2023-04-03T14:19:50;1.88;;;1.00;;
69327;SDS011;56472;52.114;5.492;2023-04-03T14:22:26;2.03;;;1.10;;
69327;SDS011;56472;52.114;5.492;2023-04-03T14:24:55;2.88;;;1.20;;
69327;SDS011;56472;52.114;5.492;2023-04-03T14:27:24;3.92;;;1.30;;
69327;SDS011;56472;52.114;5.492;2023-04-03T14:29:56;3.55;;;1.20;;
69327;SDS011;56472;52.114;5.492;2023-04-03T14:32:25;2.28;;;1.00;;
69327;SDS011;56472;52.114;5.492;2023-04-03T14:34:52;3.92;;;1.40;;
69327;SDS011;56472;52.114;5.492;2023-04-03T14:37:21;1.95;;;1.42;;
69327;SDS011;56472;52.114;5.492;2023-04-03T14:39:50;1.90;;;1.50;;
69327;SDS011;56472;52.114;5.492;2023-04-03T14:42:24;1.50;;;1.30;;
69327;SDS011;56472;52.114;5.492;2023-04-03T14:44:53;3.58;;;1.38;;
69327;SDS011;56472;52.114;5.492;2023-04-03T14:47:21;8.23;;;1.70;;
69327;SDS011;56472;52.114;5.492;2023-04-03T14:49:58;8.85;;;1.42;;
69327;SDS011;56472;52.114;5.492;2023-04-03T14:52:33;2.85;;;1.30;;
69327;SDS011;56472;52.114;5.492;2023-04-03T14:55:03;3.00;;;1.38;;
69327;SDS011;56472;52.114;5.492;2023-04-03T14:57:32;2.20;;;1.60;;
69327;SDS011;56472;52.114;5.492;2023-04-03T14:59:59;2.80;;;1.48;;
69327;SDS011;56472;52.114;5.492;2023-04-03T15:02:29;3.20;;;1.42;;
69327;SDS011;56472;52.114;5.492;2023-04-03T15:05:04;2.13;;;1.30;;
69327;SDS011;56472;52.114;5.492;2023-04-03T15:07:34;2.92;;;1.45;;
69327;SDS011;56472;52.114;5.492;2023-04-03T15:10:24;2.47;;;1.45;;
69327;SDS011;56472;52.114;5.492;2023-04-03T15:12:52;1.52;;;1.23;;
69327;SDS011;56472;52.114;5.492;2023-04-03T15:15:20;3.38;;;1.63;;
69327;SDS011;56472;52.114;5.492;2023-04-03T15:17:52;3.15;;;2.20;;
69327;SDS011;56472;52.114;5.492;2023-04-03T15:20:22;2.20;;;1.35;;
69327;SDS011;56472;52.114;5.492;2023-04-03T15:22:51;2.10;;;1.60;;
69327;SDS011;56472;52.114;5.492;2023-04-03T15:25:18;4.85;;;1.35;;
69327;SDS011;56472;52.114;5.492;2023-04-03T15:27:45;4.10;;;1.40;;
69327;SDS011;56472;52.114;5.492;2023-04-03T15:30:15;3.67;;;1.73;;
69327;SDS011;56472;52.114;5.492;2023-04-03T15:32:44;2.92;;;1.45;;
69327;SDS011;56472;52.114;5.492;2023-04-03T15:35:11;6.03;;;1.48;;
69327;SDS011;56472;52.114;5.492;2023-04-03T15:37:38;2.95;;;1.27;;
69327;SDS011;56472;52.114;5.492;2023-04-03T15:40:05;2.20;;;1.40;;
69327;SDS011;56472;52.114;5.492;2023-04-03T15:42:33;2.55;;;1.40;;
69327;SDS011;56472;52.114;5.492;2023-04-03T15:45:00;2.42;;;1.63;;
69327;SDS011;56472;52.114;5.492;2023-04-03T15:47:27;4.75;;;1.40;;
69327;SDS011;56472;52.114;5.492;2023-04-03T15:49:54;1.23;;;1.10;;
69327;SDS011;56472;52.114;5.492;2023-04-03T15:52:22;3.75;;;1.60;;
69327;SDS011;56472;52.114;5.492;2023-04-03T15:54:49;2.53;;;1.60;;
69327;SDS011;56472;52.114;5.492;2023-04-03T15:57:15;3.08;;;1.52;;
69327;SDS011;56472;52.114;5.492;2023-04-03T15:59:42;4.93;;;1.83;;
69327;SDS011;56472;52.114;5.492;2023-04-03T16:02:09;1.50;;;1.38;;
69327;SDS011;56472;52.114;5.492;2023-04-03T16:04:42;5.38;;;1.80;;
69327;SDS011;56472;52.114;5.492;2023-04-03T16:07:09;2.92;;;1.90;;
69327;SDS011;56472;52.114;5.492;2023-04-03T16:09:36;3.88;;;1.90;;
69327;SDS011;56472;52.114;5.492;2023-04-03T16:12:03;4.30;;;1.50;;
69327;SDS011;56472;52.114;5.492;2023-04-03T16:14:30;2.03;;;1.58;;
69327;SDS011;56472;52.114;5.492;2023-04-03T16:16:57;4.55;;;1.85;;
69327;SDS011;56472;52.114;5.492;2023-04-03T16:19:25;8.48;;;1.80;;
69327;SDS011;56472;52.114;5.492;2023-04-03T16:21:52;3.95;;;2.38;;
69327;SDS011;56472;52.114;5.492;2023-04-03T16:24:20;3.30;;;1.73;;
69327;SDS011;56472;52.114;5.492;2023-04-03T16:26:47;7.00;;;1.92;;
69327;SDS011;56472;52.114;5.492;2023-04-03T16:29:14;2.50;;;1.70;;
69327;SDS011;56472;52.114;5.492;2023-04-03T16:31:41;4.95;;;1.75;;
69327;SDS011;56472;52.114;5.492;2023-04-03T16:34:08;1.98;;;1.30;;
69327;SDS011;56472;52.114;5.492;2023-04-03T16:36:35;3.88;;;1.40;;
69327;SDS011;56472;52.114;5.492;2023-04-03T16:39:03;3.53;;;1.70;;
69327;SDS011;56472;52.114;5.492;2023-04-03T16:41:31;4.22;;;1.85;;
69327;SDS011;56472;52.114;5.492;2023-04-03T16:43:58;3.03;;;1.35;;
69327;SDS011;56472;52.114;5.492;2023-04-03T16:46:25;3.25;;;1.50;;
69327;SDS011;56472;52.114;5.492;2023-04-03T16:48:52;3.15;;;1.52;;
69327;SDS011;56472;52.114;5.492;2023-04-03T16:51:19;2.58;;;1.52;;
69327;SDS011;56472;52.114;5.492;2023-04-03T16:53:46;2.42;;;1.52;;
69327;SDS011;56472;52.114;5.492;2023-04-03T16:56:12;1.88;;;1.42;;
69327;SDS011;56472;52.114;5.492;2023-04-03T16:58:39;3.15;;;1.40;;
69327;SDS011;56472;52.114;5.492;2023-04-03T17:01:14;2.25;;;1.23;;
69327;SDS011;56472;52.114;5.492;2023-04-03T17:03:42;2.83;;;1.48;;
69327;SDS011;56472;52.114;5.492;2023-04-03T17:06:11;2.53;;;1.33;;
69327;SDS011;56472;52.114;5.492;2023-04-03T17:08:43;2.70;;;1.20;;
69327;SDS011;56472;52.114;5.492;2023-04-03T17:11:25;2.70;;;1.17;;
69327;SDS011;56472;52.114;5.492;2023-04-03T17:13:53;1.45;;;1.20;;
69327;SDS011;56472;52.114;5.492;2023-04-03T17:16:20;3.92;;;1.50;;